Phillips, Wisconsin
Current Conditions -  °F | °C
As of 1:55 PM on Sunday 21 Dec 2014 (Local Time) from KPBH Reporting Station
Light Snow Light Snow  
Wind Chill: 23°   Ceiling: 700
Heat Index: 32°   Visibility: 1.2mi
Dew Point: 30°   Wind: 10mph
Humidity: 94%   Direction: 160°SSE
Pressure: 29.84"   Gusts: 16mph
Location:  45.69°N, 90.41°W
Report Text: KPBH 211955Z AUTO 16009G14KT 1 1/4SM -SN OVC007 00/M01 A2984 RMK AO2 P0001 T10021010
Loading
Personal Weather Stations






























Interactive Weather Map New forecast layout! Learn more

10-Day Weather Forecast

Advertisements
Track Severe Weather on mobile